Time;durP1;ratioP1;P1;durP2;ratioP2;P2;SDS_P1;SDS_P2;PMS_P1;PMS_P2;Temp;Humidity;BMP_temperature;BMP_pressure;BME280_temperature;BME280_humidity;BME280_pressure;Samples;Min_cycle;Max_cycle;Signal;HPM_P1;HPM_P2
2021/12/04 00:02:06;;;;;;;14.43;12.93;;;;;;;;;;4912118;29;20334;-69
2021/12/04 00:04:37;;;;;;;13.33;11.77;;;4.80;99.90;;;;;;4917074;29;20086;-69
2021/12/04 00:07:05;;;;;;;17.27;14.93;;;4.90;99.90;;;;;;4930258;29;20032;-69
2021/12/04 00:09:32;;;;;;;15.53;13.93;;;4.90;99.90;;;;;;4926990;29;20032;-69
2021/12/04 00:12:01;;;;;;;14.70;13.07;;;;;;;;;;4910806;29;20531;-69
2021/12/04 00:14:26;;;;;;;16.10;13.40;;;4.90;99.90;;;;;;4912997;29;20035;-69
2021/12/04 00:16:53;;;;;;;16.77;14.60;;;4.80;99.90;;;;;;4912519;29;20107;-69
2021/12/04 00:19:18;;;;;;;15.47;13.47;;;4.80;99.90;;;;;;4915371;29;20193;-69
2021/12/04 00:21:45;;;;;;;17.67;15.67;;;4.80;99.90;;;;;;4931663;29;20471;-69
2021/12/04 00:24:10;;;;;;;18.57;15.87;;;4.80;99.90;;;;;;4931892;29;20067;-69
2021/12/04 00:26:37;;;;;;;18.37;16.37;;;;;;;;;;4931565;29;20065;-69
2021/12/04 00:29:03;;;;;;;17.10;14.37;;;4.90;99.90;;;;;;4930162;29;20032;-69
2021/12/04 00:31:29;;;;;;;19.80;15.97;;;;;;;;;;4912918;29;20028;-69
2021/12/04 00:33:55;;;;;;;18.33;15.17;;;;;;;;;;4911893;29;20032;-70
2021/12/04 00:36:55;;;;;;;16.07;14.40;;;4.80;99.90;;;;;;4912805;29;20024;-70
2021/12/04 00:50:18;;;;;;;;;;;5.30;99.90;;;;;;4921956;29;20043;-69
2021/12/04 00:52:44;;;;;;;15.27;13.63;;;;;;;;;;4912491;29;19919;-69
2021/12/04 00:55:10;;;;;;;17.07;14.43;;;4.80;99.90;;;;;;4912383;29;20179;-69
2021/12/04 00:57:36;;;;;;;17.47;13.77;;;;;;;;;;4911448;29;20033;-69
2021/12/04 01:00:01;;;;;;;18.30;14.47;;;4.80;99.90;;;;;;4921634;29;20028;-69
2021/12/04 01:02:27;;;;;;;16.80;15.00;;;4.80;99.90;;;;;;4935018;29;20125;-69
2021/12/04 01:04:53;;;;;;;18.73;14.20;;;4.80;99.90;;;;;;4934811;29;20258;-69
2021/12/04 01:07:24;;;;;;;19.60;15.67;;;;;;;;;;4935376;29;20033;-69
2021/12/04 01:09:51;;;;;;;16.23;14.13;;;4.90;99.90;;;;;;4928570;29;20476;-69
2021/12/04 01:12:16;;;;;;;19.57;15.83;;;5.00;99.90;;;;;;4916404;29;20028;-69
2021/12/04 01:14:42;;;;;;;18.30;15.60;;;5.10;99.90;;;;;;4916158;29;20496;-69
2021/12/04 01:17:07;;;;;;;18.60;16.10;;;;;;;;;;4914071;29;20083;-69
2021/12/04 01:19:33;;;;;;;22.10;17.73;;;4.90;99.90;;;;;;4918301;29;20469;-70
2021/12/04 01:21:59;;;;;;;18.80;16.20;;;4.90;99.90;;;;;;4934613;29;20876;-69
2021/12/04 01:24:25;;;;;;;17.97;16.03;;;4.90;99.90;;;;;;4934943;29;20051;-69
2021/12/04 01:26:51;;;;;;;17.33;15.43;;;5.10;99.90;;;;;;4934426;29;20381;-69
2021/12/04 01:29:19;;;;;;;19.13;15.67;;;4.90;99.90;;;;;;4933588;29;20028;-69
2021/12/04 01:31:45;;;;;;;16.03;13.70;;;4.70;99.90;;;;;;4915387;29;20029;-69
2021/12/04 01:34:12;;;;;;;15.73;13.90;;;4.60;99.90;;;;;;4915452;29;20051;-69
2021/12/04 01:36:37;;;;;;;19.07;15.83;;;4.90;99.90;;;;;;4915785;29;20034;-69
2021/12/04 01:39:05;;;;;;;16.23;13.73;;;5.10;99.90;;;;;;4915181;29;20388;-69
2021/12/04 01:41:33;;;;;;;18.47;13.90;;;4.90;99.90;;;;;;4933910;29;20510;-69
2021/12/04 01:43:59;;;;;;;19.70;14.30;;;4.90;99.90;;;;;;4932872;29;20036;-69
2021/12/04 01:46:26;;;;;;;17.17;14.97;;;4.80;99.90;;;;;;4934258;29;20031;-69
2021/12/04 01:48:52;;;;;;;16.37;14.27;;;5.10;99.90;;;;;;4934128;29;20068;-68
2021/12/04 01:51:18;;;;;;;15.63;13.13;;;5.00;99.90;;;;;;4917819;29;20071;-69
2021/12/04 01:53:43;;;;;;;17.37;13.20;;;4.90;99.90;;;;;;4915285;29;20052;-69
2021/12/04 01:56:09;;;;;;;18.73;16.40;;;;;;;;;;4915064;29;20472;-69
2021/12/04 01:58:36;;;;;;;17.93;15.53;;;5.10;99.90;;;;;;4915390;29;20021;-69
2021/12/04 02:01:02;;;;;;;14.60;12.57;;;5.00;99.90;;;;;;4928408;29;20036;-69
2021/12/04 02:03:28;;;;;;;13.80;11.83;;;;;;;;;;4934158;29;20027;-69
2021/12/04 02:05:54;;;;;;;16.77;14.63;;;5.10;99.90;;;;;;4933623;29;20111;-69
2021/12/04 02:08:23;;;;;;;18.03;12.77;;;5.10;99.90;;;;;;4934173;29;20031;-69
2021/12/04 02:10:51;;;;;;;16.97;13.17;;;4.90;99.90;;;;;;4921471;29;20036;-69
2021/12/04 02:13:19;;;;;;;16.63;14.20;;;5.10;99.90;;;;;;4915123;29;20500;-69
2021/12/04 02:15:46;;;;;;;19.50;16.60;;;5.00;99.90;;;;;;4914549;29;20059;-69
2021/12/04 02:18:13;;;;;;;17.00;14.17;;;4.90;99.90;;;;;;4914832;29;20383;-69
2021/12/04 02:20:39;;;;;;;21.00;17.30;;;5.00;99.90;;;;;;4925381;29;20388;-70
2021/12/04 02:23:07;;;;;;;17.00;15.13;;;5.20;99.90;;;;;;4933562;29;20503;-69
2021/12/04 02:25:33;;;;;;;18.10;15.33;;;5.00;99.90;;;;;;4933805;29;20036;-69
2021/12/04 02:28:00;;;;;;;18.67;14.80;;;5.00;99.90;;;;;;4933299;29;20115;-69
2021/12/04 02:30:29;;;;;;;19.10;15.47;;;5.00;99.90;;;;;;4924453;29;20142;-69
2021/12/04 02:32:56;;;;;;;18.00;14.27;;;5.00;99.90;;;;;;4914179;29;20040;-69
2021/12/04 02:35:25;;;;;;;20.60;16.10;;;5.00;99.90;;;;;;4914774;29;20036;-69
2021/12/04 02:37:51;;;;;;;21.13;16.80;;;4.90;99.90;;;;;;4914242;29;20032;-69
2021/12/04 02:40:19;;;;;;;19.43;15.07;;;4.90;99.90;;;;;;4921964;29;20027;-69
2021/12/04 02:42:45;;;;;;;16.77;14.43;;;5.00;99.90;;;;;;4933452;29;20039;-69
2021/12/04 02:45:11;;;;;;;16.60;14.00;;;4.70;99.90;;;;;;4932448;29;20056;-69
2021/12/04 02:47:37;;;;;;;13.23;11.30;;;5.10;99.90;;;;;;4933241;29;20024;-69
2021/12/04 02:50:06;;;;;;;19.67;14.70;;;5.00;99.90;;;;;;4927343;29;20024;-69
2021/12/04 02:52:33;;;;;;;17.97;13.67;;;5.00;99.90;;;;;;4914475;29;20062;-69
2021/12/04 02:54:59;;;;;;;16.37;12.57;;;;;;;;;;4913818;29;20032;-69
2021/12/04 02:57:26;;;;;;;14.30;11.93;;;;;;;;;;4914247;29;20091;-69
2021/12/04 02:59:53;;;;;;;14.40;12.30;;;;;;;;;;4916729;29;20087;-69
2021/12/04 03:02:23;;;;;;;16.40;13.40;;;4.90;99.90;;;;;;4932574;29;20126;-69
2021/12/04 03:04:57;;;;;;;17.47;12.73;;;5.10;99.90;;;;;;4933007;29;20099;-69
2021/12/04 03:07:23;;;;;;;;;;;5.00;99.90;;;;;;4933505;29;20485;-69
2021/12/04 03:09:49;;;;;;;15.43;11.93;;;4.70;99.90;;;;;;4925013;29;19921;-69
2021/12/04 03:12:18;;;;;;;14.63;10.43;;;4.90;99.90;;;;;;4931813;29;20063;-69
2021/12/04 03:14:44;;;;;;;14.80;11.17;;;5.00;99.90;;;;;;4932727;29;20439;-69
2021/12/04 03:17:10;;;;;;;12.57;10.33;;;;;;;;;;4932714;29;20035;-69
2021/12/04 03:19:37;;;;;;;13.50;10.80;;;4.90;99.90;;;;;;4932086;29;20032;-69
2021/12/04 03:22:03;;;;;;;11.37;9.53;;;4.90;99.90;;;;;;4932083;29;20048;-69
2021/12/04 03:24:30;;;;;;;13.10;10.07;;;5.00;99.90;;;;;;4932925;29;20047;-69
2021/12/04 03:26:56;;;;;;;12.53;11.23;;;5.10;99.90;;;;;;4931958;29;20400;-69
2021/12/04 03:29:27;;;;;;;11.97;9.93;;;5.10;99.90;;;;;;4922640;29;20378;-69
2021/12/04 03:40:23;;;;;;;10.63;9.20;;;5.00;99.90;;;;;;4928701;29;20559;-69
2021/12/04 03:42:49;;;;;;;12.30;10.07;;;;;;;;;;4932026;29;20051;-69
2021/12/04 03:45:14;;;;;;;12.77;9.97;;;5.20;99.90;;;;;;4931855;29;20044;-69
2021/12/04 03:47:45;;;;;;;10.23;8.70;;;5.00;99.90;;;;;;4931234;29;20047;-69
2021/12/04 03:50:11;;;;;;;13.47;10.63;;;5.10;99.90;;;;;;4914408;29;20032;-69
2021/12/04 03:52:37;;;;;;;13.73;10.67;;;;;;;;;;4913161;29;20121;-69
2021/12/04 03:55:07;;;;;;;14.43;11.53;;;5.10;99.90;;;;;;4911803;29;20024;-69
2021/12/04 03:57:33;;;;;;;13.10;10.43;;;5.00;99.90;;;;;;4912875;29;20031;-69
2021/12/04 03:59:59;;;;;;;13.70;10.37;;;5.20;99.90;;;;;;4926588;29;20404;-68
2021/12/04 04:02:25;;;;;;;12.93;11.43;;;5.10;99.90;;;;;;4931748;29;20102;-69
2021/12/04 04:04:51;;;;;;;13.83;11.07;;;5.20;99.90;;;;;;4931701;29;20178;-69
2021/12/04 04:07:17;;;;;;;17.63;11.20;;;5.00;99.90;;;;;;4932277;29;20122;-69
2021/12/04 04:09:43;;;;;;;17.33;11.47;;;;;;;;;;4920008;29;20036;-69
2021/12/04 04:12:09;;;;;;;19.00;12.77;;;;;;;;;;4911924;29;20028;-69
2021/12/04 04:14:35;;;;;;;17.97;12.40;;;5.10;99.90;;;;;;4912994;29;20498;-69
2021/12/04 04:17:01;;;;;;;18.63;13.10;;;;;;;;;;4912566;29;20051;-69
2021/12/04 04:19:26;;;;;;;15.90;11.23;;;5.20;99.90;;;;;;4922605;29;20036;-69
2021/12/04 04:21:56;;;;;;;19.47;12.93;;;5.10;99.90;;;;;;4929992;29;20038;-69
2021/12/04 04:24:22;;;;;;;19.70;13.57;;;;;;;;;;4931792;29;20036;-69
2021/12/04 04:26:48;;;;;;;17.40;12.47;;;;;;;;;;4931395;29;20028;-69
2021/12/04 04:29:14;;;;;;;21.53;14.53;;;5.10;99.90;;;;;;4931714;29;20745;-69
2021/12/04 04:31:48;;;;;;;20.57;14.40;;;5.00;99.90;;;;;;4931414;29;20031;-69
2021/12/04 04:34:22;;;;;;;19.95;13.25;;;5.10;99.90;;;;;;4913581;29;20039;-69
2021/12/04 05:14:38;;;;;;;29.17;17.13;;;5.20;99.90;;;;;;4916392;29;20024;-69
2021/12/04 05:17:08;;;;;;;39.70;19.93;;;5.20;99.90;;;;;;4915769;29;20021;-69
2021/12/04 05:22:03;;;;;;;30.13;18.07;;;5.30;99.90;;;;;;4915601;29;20338;-69
2021/12/04 05:24:29;;;;;;;36.03;18.53;;;;;;;;;;4915808;29;20039;-69
2021/12/04 05:26:55;;;;;;;34.30;19.40;;;5.10;99.90;;;;;;4934498;29;20028;-68
2021/12/04 05:29:20;;;;;;;36.77;20.67;;;5.10;99.90;;;;;;4933590;29;20032;-69
2021/12/04 05:31:46;;;;;;;37.23;18.90;;;;;;;;;;4934704;29;20086;-69
2021/12/04 05:34:12;;;;;;;40.73;19.67;;;5.30;99.90;;;;;;4934223;29;20032;-69
2021/12/04 05:36:38;;;;;;;31.53;17.63;;;;;;;;;;4916960;29;20040;-69
2021/12/04 05:39:05;;;;;;;25.90;16.80;;;5.10;99.90;;;;;;4914899;29;20478;-69
2021/12/04 05:41:31;;;;;;;25.00;15.63;;;5.20;99.90;;;;;;4915852;29;20333;-69
2021/12/04 05:43:59;;;;;;;29.60;16.33;;;;;;;;;;4915051;29;20047;-69
2021/12/04 05:46:28;;;;;;;21.37;14.07;;;5.20;99.90;;;;;;4930930;29;20032;-69
2021/12/04 05:49:01;;;;;;;25.47;16.33;;;5.20;99.90;;;;;;4934101;29;20413;-69
2021/12/04 05:54:05;;;;;;;41.87;18.10;;;5.10;99.90;;;;;;4934066;29;20051;-69
2021/12/04 05:56:33;;;;;;;31.60;15.50;;;5.10;99.90;;;;;;4917972;29;20031;-69
2021/12/04 05:58:59;;;;;;;27.00;15.13;;;5.20;99.90;;;;;;4915008;29;20028;-69
2021/12/04 06:01:26;;;;;;;30.83;17.23;;;5.10;99.90;;;;;;4915311;29;20024;-69
2021/12/04 06:03:52;;;;;;;27.30;14.33;;;5.10;99.90;;;;;;4914906;29;20067;-69
2021/12/04 06:06:17;;;;;;;32.00;16.03;;;5.30;99.90;;;;;;4929009;29;20063;-69
2021/12/04 06:08:43;;;;;;;21.90;14.00;;;5.10;99.90;;;;;;4934126;29;20024;-69
2021/12/04 06:11:09;;;;;;;21.03;14.00;;;5.20;99.90;;;;;;4933872;29;20252;-69
2021/12/04 06:13:35;;;;;;;25.83;13.67;;;;;;;;;;4932936;29;20027;-69
2021/12/04 06:16:01;;;;;;;21.20;14.97;;;5.30;99.90;;;;;;4921349;29;20040;-69
2021/12/04 06:18:27;;;;;;;27.87;14.67;;;5.20;99.90;;;;;;4915046;29;20095;-69
2021/12/04 06:23:37;;;;;;;21.63;11.80;;;5.20;99.90;;;;;;4915265;29;20075;-69
2021/12/04 06:26:05;;;;;;;34.07;15.30;;;5.20;99.90;;;;;;4925976;29;20040;-69
2021/12/04 06:28:31;;;;;;;20.23;13.43;;;;;;;;;;4933788;29;20054;-69
2021/12/04 06:30:59;;;;;;;22.70;14.00;;;5.30;99.90;;;;;;4933332;29;20063;-69
2021/12/04 06:33:24;;;;;;;24.20;12.93;;;5.20;99.90;;;;;;4933871;29;20030;-69
2021/12/04 06:35:52;;;;;;;25.03;13.23;;;;;;;;;;4922885;29;20111;-69
2021/12/04 06:38:18;;;;;;;22.80;13.27;;;5.20;99.90;;;;;;4914878;29;20032;-69
2021/12/04 06:40:46;;;;;;;22.10;12.23;;;5.10;99.90;;;;;;4914690;29;20403;-69
2021/12/04 06:43:12;;;;;;;25.93;15.07;;;5.20;99.90;;;;;;4914582;29;20473;-69
2021/12/04 06:45:41;;;;;;;20.30;12.37;;;5.30;99.90;;;;;;4924166;29;20099;-69
2021/12/04 06:48:10;;;;;;;28.60;13.30;;;5.30;99.90;;;;;;4927625;29;20027;-69
2021/12/04 06:50:46;;;;;;;21.80;11.93;;;5.20;99.90;;;;;;4931388;29;20531;-69
2021/12/04 06:53:23;;;;;;;24.20;11.60;;;5.20;99.90;;;;;;4932611;29;20891;-69
2021/12/04 06:55:52;;;;;;;27.33;14.10;;;5.10;99.90;;;;;;4927752;29;20082;-68
2021/12/04 06:58:18;;;;;;;21.53;13.10;;;5.10;99.90;;;;;;4932021;29;20107;-69
2021/12/04 07:00:44;;;;;;;26.23;14.63;;;;;;;;;;4932533;29;20034;-68
2021/12/04 07:03:10;;;;;;;36.37;14.63;;;5.20;99.90;;;;;;4932593;29;20063;-68
2021/12/04 07:05:36;;;;;;;28.70;14.37;;;5.20;99.90;;;;;;4931391;29;20051;-69
2021/12/04 07:08:01;;;;;;;27.87;15.40;;;;;;;;;;4932243;29;20039;-69
2021/12/04 07:10:27;;;;;;;29.43;14.40;;;4.70;99.90;;;;;;4932693;29;20027;-69
2021/12/04 07:12:53;;;;;;;22.40;12.57;;;5.10;99.90;;;;;;4928806;29;20418;-69
2021/12/04 07:15:18;;;;;;;24.73;13.83;;;5.20;99.90;;;;;;4932606;29;20126;-69
2021/12/04 07:17:44;;;;;;;29.43;16.27;;;5.30;99.90;;;;;;4932541;29;20024;-69
2021/12/04 07:20:10;;;;;;;23.57;15.03;;;5.20;99.90;;;;;;4928233;29;20071;-69
2021/12/04 07:22:36;;;;;;;33.87;15.20;;;5.10;99.90;;;;;;4913877;29;20099;-69
2021/12/04 07:25:03;;;;;;;21.23;12.00;;;5.30;99.90;;;;;;4913206;29;20095;-69
2021/12/04 07:27:29;;;;;;;30.17;14.40;;;;;;;;;;4913736;29;20020;-69
2021/12/04 07:29:56;;;;;;;29.40;15.97;;;5.30;99.90;;;;;;4920349;29;20020;-69
2021/12/04 07:32:24;;;;;;;27.20;15.10;;;5.20;99.90;;;;;;4913813;29;20032;-69
2021/12/04 07:34:50;;;;;;;26.37;14.40;;;5.20;99.90;;;;;;4912933;29;20418;-69
2021/12/04 07:37:16;;;;;;;24.70;15.37;;;;;;;;;;4920088;29;20107;-69
2021/12/04 07:39:41;;;;;;;25.73;13.00;;;5.30;99.90;;;;;;4932652;29;20102;-69
2021/12/04 07:42:07;;;;;;;31.20;15.80;;;5.40;99.90;;;;;;4931614;29;20214;-68
2021/12/04 07:44:33;;;;;;;29.33;15.07;;;;;;;;;;4932400;29;20153;-69
2021/12/04 07:47:00;;;;;;;28.50;15.10;;;5.30;99.90;;;;;;4931934;29;20063;-69
2021/12/04 07:49:25;;;;;;;23.80;14.07;;;5.80;99.90;;;;;;4932314;29;20472;-71
2021/12/04 07:51:51;;;;;;;28.83;14.93;;;;;;;;;;4915385;29;20047;-71
2021/12/04 07:54:18;;;;;;;28.73;16.57;;;5.50;99.90;;;;;;4913548;29;20048;-71
2021/12/04 07:56:44;;;;;;;44.53;20.23;;;5.30;99.90;;;;;;4913569;29;20481;-71
2021/12/04 07:59:10;;;;;;;34.67;17.87;;;;;;;;;;4932130;29;20120;-71
2021/12/04 08:01:35;;;;;;;29.10;15.27;;;5.40;99.90;;;;;;4932636;29;20031;-71
2021/12/04 08:04:01;;;;;;;47.27;19.77;;;;;;;;;;4931487;29;20050;-71
2021/12/04 08:06:27;;;;;;;33.43;18.07;;;5.40;99.90;;;;;;4932494;29;20028;-71
2021/12/04 08:08:58;;;;;;;44.17;20.27;;;5.30;99.90;;;;;;4930297;29;20103;-71
2021/12/04 08:11:24;;;;;;;32.17;16.93;;;5.40;99.90;;;;;;4932788;29;20030;-71
2021/12/04 08:13:50;;;;;;;26.73;14.83;;;;;;;;;;4932245;29;20035;-71
2021/12/04 08:16:15;;;;;;;33.37;17.73;;;5.50;99.90;;;;;;4928394;29;20032;-71
2021/12/04 08:18:41;;;;;;;30.40;16.33;;;;;;;;;;4912944;29;20499;-71
2021/12/04 08:21:08;;;;;;;30.03;16.30;;;;;;;;;;4912815;29;20091;-72
2021/12/04 08:23:33;;;;;;;29.77;14.60;;;5.40;99.90;;;;;;4955725;23;20421;-73
2021/12/04 08:25:59;;;;;;;30.47;15.83;;;5.40;99.90;;;;;;4947220;29;20042;-73
2021/12/04 08:28:24;;;;;;;32.80;15.37;;;5.90;99.90;;;;;;4950898;29;20388;-73
2021/12/04 08:30:50;;;;;;;25.47;14.63;;;5.40;99.90;;;;;;4951626;29;20059;-73
2021/12/04 08:33:16;;;;;;;25.40;12.63;;;5.40;99.90;;;;;;4951186;29;20028;-73
2021/12/04 08:35:43;;;;;;;21.47;13.87;;;;;;;;;;4952349;29;20380;-74
2021/12/04 08:38:11;;;;;;;22.93;12.03;;;5.60;99.90;;;;;;4950393;29;20293;-73
2021/12/04 08:40:38;;;;;;;26.10;13.77;;;5.60;99.90;;;;;;4935348;29;20043;-74
2021/12/04 08:43:04;;;;;;;26.83;13.97;;;5.50;99.90;;;;;;4949030;29;20035;-74
2021/12/04 08:45:30;;;;;;;27.20;13.23;;;5.60;99.90;;;;;;4947820;28;20035;-73
2021/12/04 08:47:56;;;;;;;24.43;14.67;;;;;;;;;;4931738;29;20492;-74
2021/12/04 08:50:25;;;;;;;29.40;15.97;;;5.50;99.90;;;;;;4932939;29;20111;-74
2021/12/04 08:52:52;;;;;;;27.53;14.10;;;5.50;99.90;;;;;;4949489;29;20082;-75
2021/12/04 08:55:18;;;;;;;26.27;15.77;;;;;;;;;;4951952;28;20034;-75
2021/12/04 08:57:45;;;;;;;23.27;14.23;;;;;;;;;;4951702;28;20059;-75
2021/12/04 09:00:15;;;;;;;29.80;14.90;;;5.80;99.90;;;;;;4951436;28;20094;-76
2021/12/04 09:02:42;;;;;;;25.50;13.43;;;5.80;99.90;;;;;;4935974;28;20114;-75
2021/12/04 09:05:10;;;;;;;31.07;16.20;;;5.80;99.90;;;;;;4932302;29;20047;-77
2021/12/04 09:07:36;;;;;;;32.17;14.77;;;5.30;99.90;;;;;;4932690;29;20031;-75
2021/12/04 09:10:02;;;;;;;31.73;16.10;;;5.90;99.90;;;;;;4954190;28;20027;-75
2021/12/04 09:12:28;;;;;;;39.07;18.57;;;5.70;99.90;;;;;;4963438;28;20063;-75
2021/12/04 09:14:56;;;;;;;37.20;16.70;;;5.80;99.90;;;;;;4950013;29;20070;-75
2021/12/04 09:17:22;;;;;;;34.80;17.30;;;5.90;99.90;;;;;;4951733;29;20396;-75
2021/12/04 09:19:48;;;;;;;42.10;19.43;;;5.80;99.90;;;;;;4951529;28;20086;-75
2021/12/04 09:22:24;;;;;;;33.43;17.97;;;5.30;99.90;;;;;;4954607;29;20507;-76
2021/12/04 09:24:54;;;;;;;33.87;16.63;;;5.90;99.90;;;;;;4953843;29;20041;-75
2021/12/04 09:30:06;;;;;;;35.30;19.13;;;;;;;;;;4954182;28;20059;-75
2021/12/04 09:35:37;;;;;;;46.57;20.07;;;5.90;99.90;;;;;;4948360;29;20035;-75
2021/12/04 10:02:35;;;;;;;34.07;19.57;;;6.00;99.90;;;;;;4953519;28;20039;-75
2021/12/04 10:14:03;;;;;;;30.30;18.00;;;6.20;99.90;;;;;;4934646;29;20396;-74
2021/12/04 10:21:48;;;;;;;31.13;18.50;;;6.00;99.90;;;;;;4938226;28;20104;-73
2021/12/04 10:32:40;;;;;;;29.00;17.87;;;6.20;99.90;;;;;;4947389;28;20046;-75
2021/12/04 10:35:19;;;;;;;39.30;19.30;;;6.20;99.90;;;;;;4944302;29;20045;-73
2021/12/04 10:37:48;;;;;;;35.93;18.03;;;6.20;99.90;;;;;;4945022;29;20027;-74
2021/12/04 10:40:16;;;;;;;34.97;18.07;;;6.20;99.90;;;;;;4944441;29;20031;-74
2021/12/04 10:43:01;;;;;;;39.53;19.00;;;6.40;99.90;;;;;;4941745;29;20118;-74
2021/12/04 10:45:33;;;;;;;33.53;18.70;;;6.30;99.90;;;;;;4939808;28;20043;-74
2021/12/04 10:48:03;;;;;;;38.63;19.07;;;6.30;99.90;;;;;;4961878;28;20033;-75
2021/12/04 10:50:38;;;;;;;46.97;21.70;;;6.20;99.90;;;;;;4934534;29;20034;-73
2021/12/04 10:53:10;;;;;;;35.70;17.13;;;6.40;99.90;;;;;;4941344;29;20031;-75
2021/12/04 11:01:12;;;;;;;32.77;18.73;;;6.20;99.90;;;;;;4943752;29;20496;-73
2021/12/04 11:26:20;;;;;;;23.50;16.60;;;6.20;99.90;;;;;;4949933;29;20098;-72
2021/12/04 11:42:18;;;;;;;23.23;16.17;;;6.20;99.90;;;;;;4911730;29;20505;-73
2021/12/04 11:44:52;;;;;;;26.13;16.47;;;6.20;99.90;;;;;;4895833;29;20843;-73
2021/12/04 11:47:18;;;;;;;34.08;18.98;;;6.30;99.90;;;;;;4912154;29;20477;-73
2021/12/04 11:49:44;;;;;;;27.93;16.57;;;6.20;99.90;;;;;;4911790;29;20032;-74
2021/12/04 11:52:17;;;;;;;30.10;18.63;;;6.20;99.90;;;;;;4911829;29;20058;-74
2021/12/04 11:54:52;;;;;;;23.05;15.55;;;6.20;99.90;;;;;;4911576;29;20047;-74
2021/12/04 11:57:35;;;;;;;25.03;16.17;;;6.20;99.90;;;;;;4912256;29;20042;-73
2021/12/04 12:00:26;;;;;;;29.77;17.53;;;6.30;99.90;;;;;;4910598;29;20035;-74
2021/12/04 12:03:04;;;;;;;28.63;17.37;;;6.20;99.90;;;;;;4909414;29;20040;-74
2021/12/04 12:05:29;;;;;;;28.93;17.83;;;6.20;99.90;;;;;;4909562;29;20039;-74
2021/12/04 12:07:57;;;;;;;24.63;17.13;;;6.20;99.90;;;;;;4916594;29;20031;-74
2021/12/04 12:10:26;;;;;;;24.53;16.13;;;6.20;99.90;;;;;;4947335;29;20031;-74
2021/12/04 12:13:03;;;;;;;21.57;16.70;;;6.30;99.90;;;;;;4953592;28;20412;-74
2021/12/04 12:15:34;;;;;;;27.50;16.83;;;6.20;99.90;;;;;;4952480;28;20113;-74
2021/12/04 12:18:11;;;;;;;31.07;18.67;;;6.20;99.90;;;;;;4951741;28;20019;-74
2021/12/04 12:20:59;;;;;;;27.20;18.00;;;6.20;99.90;;;;;;4951880;28;20038;-74
2021/12/04 12:23:29;;;;;;;28.50;18.40;;;;;;;;;;4951499;28;20543;-74
2021/12/04 12:31:53;;;;;;;24.83;18.07;;;6.20;99.90;;;;;;4951983;29;20085;-73
2021/12/04 12:37:26;;;;;;;27.97;20.57;;;6.10;99.90;;;;;;4940372;28;20035;-74
2021/12/04 12:39:55;;;;;;;21.53;16.80;;;6.20;99.90;;;;;;4950859;28;20035;-73
2021/12/04 12:42:30;;;;;;;22.30;16.93;;;6.20;99.90;;;;;;4952094;28;20030;-74
2021/12/04 12:45:23;;;;;;;31.87;20.20;;;6.40;99.90;;;;;;4951410;28;20078;-74
2021/12/04 12:47:49;;;;;;;26.70;17.70;;;6.10;99.90;;;;;;4966618;28;20038;-74
2021/12/04 12:50:31;;;;;;;22.27;17.33;;;6.20;99.90;;;;;;4949916;28;20031;-74
2021/12/04 12:53:07;;;;;;;20.60;15.70;;;6.10;99.90;;;;;;4951006;28;20032;-74
2021/12/04 12:55:34;;;;;;;19.93;15.97;;;6.30;99.90;;;;;;4950713;28;20106;-74
2021/12/04 12:58:27;;;;;;;15.87;12.97;;;6.20;99.90;;;;;;4934378;29;20042;-74
2021/12/04 13:12:10;;;;;;;22.30;15.57;;;6.40;99.90;;;;;;4942657;29;19942;-74
2021/12/04 13:14:46;;;;;;;17.13;14.00;;;6.20;99.90;;;;;;4961008;28;20020;-74
2021/12/04 13:17:18;;;;;;;18.27;14.53;;;6.20;99.90;;;;;;4946283;29;20408;-75
2021/12/04 13:19:48;;;;;;;18.37;13.93;;;6.30;99.90;;;;;;4944567;28;20126;-74
2021/12/04 13:22:26;;;;;;;17.87;14.60;;;6.30;99.90;;;;;;4945368;29;20544;-74
2021/12/04 13:24:56;;;;;;;19.67;15.03;;;6.30;99.90;;;;;;4945562;29;20043;-75
2021/12/04 13:29:57;;;;;;;18.43;14.13;;;6.30;99.90;;;;;;4947934;28;20027;-74
2021/12/04 13:32:52;;;;;;;19.50;13.65;;;6.20;99.90;;;;;;4945236;28;20030;-74
2021/12/04 13:35:24;;;;;;;20.97;13.70;;;6.20;99.90;;;;;;4934867;29;20038;-74
2021/12/04 13:37:54;;;;;;;21.90;15.00;;;6.20;99.90;;;;;;4957867;28;20034;-74
2021/12/04 13:40:20;;;;;;;20.47;16.40;;;6.20;99.90;;;;;;4944603;28;20035;-74
2021/12/04 13:42:48;;;;;;;21.67;16.53;;;6.20;99.90;;;;;;4945788;29;20039;-74
2021/12/04 13:45:17;;;;;;;21.57;16.53;;;5.20;99.90;;;;;;4941455;29;20039;-74
2021/12/04 13:47:49;;;;;;;20.93;17.10;;;6.30;99.90;;;;;;4954442;28;20118;-75
2021/12/04 13:51:00;;;;;;;19.73;15.63;;;6.30;99.90;;;;;;4957854;28;20042;-74
2021/12/04 13:53:29;;;;;;;22.13;16.70;;;6.30;99.90;;;;;;4939793;28;20122;-75
2021/12/04 13:56:16;;;;;;;22.37;17.67;;;6.30;99.90;;;;;;4933623;29;20035;-74
2021/12/04 13:58:47;;;;;;;22.03;17.20;;;6.10;99.90;;;;;;4948565;29;20031;-74
2021/12/04 14:01:14;;;;;;;19.53;15.17;;;6.10;99.90;;;;;;4954377;29;20392;-74
2021/12/04 14:03:40;;;;;;;21.47;15.93;;;6.30;99.90;;;;;;4948030;28;20100;-75
2021/12/04 14:06:13;;;;;;;20.50;16.77;;;6.30;99.90;;;;;;4942737;28;20102;-74
2021/12/04 14:08:39;;;;;;;24.02;19.30;;;;;;;;;;4942232;29;20030;-74
2021/12/04 14:11:05;;;;;;;27.53;18.77;;;;;;;;;;4945133;29;20028;-75
2021/12/04 14:13:31;;;;;;;23.47;16.90;;;;;;;;;;4943875;29;20024;-75
2021/12/04 14:15:57;;;;;;;23.30;17.43;;;6.20;99.90;;;;;;4944560;29;20125;-75
2021/12/04 14:18:25;;;;;;;23.10;18.83;;;6.20;99.90;;;;;;4943739;29;20034;-75
2021/12/04 14:20:54;;;;;;;23.63;17.97;;;6.20;99.90;;;;;;4957532;28;20020;-75
2021/12/04 14:23:24;;;;;;;26.93;18.87;;;6.40;99.90;;;;;;4946242;29;20039;-73
2021/12/04 14:25:53;;;;;;;24.00;18.63;;;;;;;;;;4942062;29;20059;-75
2021/12/04 14:28:19;;;;;;;23.03;18.23;;;6.30;99.90;;;;;;4944785;29;20425;-75
2021/12/04 14:30:48;;;;;;;23.43;17.87;;;6.30;99.90;;;;;;4942633;28;20473;-75
2021/12/04 14:33:19;;;;;;;23.57;18.67;;;6.20;99.90;;;;;;4943523;28;20030;-75
2021/12/04 14:35:47;;;;;;;23.33;18.17;;;6.30;99.90;;;;;;4944205;29;20051;-75
2021/12/04 14:38:16;;;;;;;27.57;21.37;;;6.20;99.90;;;;;;4945152;29;20032;-75
2021/12/04 14:41:00;;;;;;;25.97;20.73;;;6.20;99.90;;;;;;4957551;28;20027;-76
2021/12/04 14:43:29;;;;;;;26.42;18.70;;;6.10;99.90;;;;;;4942752;28;20016;-74
2021/12/04 14:45:58;;;;;;;26.73;19.70;;;6.10;99.90;;;;;;4948088;28;20467;-75
2021/12/04 14:48:34;;;;;;;24.33;19.17;;;6.10;99.90;;;;;;4952208;28;20043;-75
2021/12/04 14:51:07;;;;;;;22.63;18.47;;;6.30;99.90;;;;;;4952283;28;20031;-75
2021/12/04 14:53:34;;;;;;;24.27;16.97;;;6.20;99.90;;;;;;4952906;28;20050;-75
2021/12/04 14:55:59;;;;;;;20.93;15.93;;;6.20;99.90;;;;;;4949897;29;20031;-75
2021/12/04 14:58:27;;;;;;;20.23;16.23;;;6.10;99.90;;;;;;4952506;29;20037;-75
2021/12/04 15:01:00;;;;;;;25.87;18.53;;;6.20;99.90;;;;;;4951812;28;20372;-75
2021/12/04 15:03:55;;;;;;;22.50;16.97;;;6.10;99.90;;;;;;4951547;28;20027;-75
2021/12/04 15:06:22;;;;;;;23.10;18.07;;;6.20;99.90;;;;;;4952122;29;20036;-75
2021/12/04 15:09:14;;;;;;;24.87;16.77;;;6.20;99.90;;;;;;4952825;28;20042;-75
2021/12/04 15:11:43;;;;;;;22.00;17.87;;;6.20;99.90;;;;;;4953266;28;20031;-75
2021/12/04 15:14:21;;;;;;;23.87;17.37;;;6.10;99.90;;;;;;4952530;28;20032;-75
2021/12/04 15:16:51;;;;;;;22.63;17.13;;;6.10;99.90;;;;;;4967720;28;20509;-74
2021/12/04 15:19:27;;;;;;;24.53;18.43;;;6.10;99.90;;;;;;4952091;28;20039;-74
2021/12/04 15:22:00;;;;;;;23.13;18.50;;;6.00;99.90;;;;;;4951726;28;20488;-75
2021/12/04 15:24:34;;;;;;;23.00;17.73;;;6.10;99.90;;;;;;4952177;28;20058;-74
2021/12/04 15:27:04;;;;;;;24.38;18.23;;;6.10;99.90;;;;;;4951697;28;20287;-75
2021/12/04 15:29:31;;;;;;;26.50;20.47;;;6.00;99.90;;;;;;4950887;29;20495;-75
2021/12/04 15:32:05;;;;;;;22.83;18.10;;;6.10;99.90;;;;;;4951059;28;20035;-74
2021/12/04 15:34:35;;;;;;;30.02;19.50;;;6.00;99.90;;;;;;4952026;28;20034;-75
2021/12/04 15:37:04;;;;;;;24.00;18.70;;;6.20;99.90;;;;;;4950694;29;20408;-75
2021/12/04 15:39:35;;;;;;;24.83;19.83;;;6.00;99.90;;;;;;4951218;28;20035;-74
2021/12/04 15:42:21;;;;;;;21.80;16.87;;;6.10;99.90;;;;;;4948023;28;20373;-75
2021/12/04 15:45:06;;;;;;;26.30;18.40;;;;;;;;;;4950372;29;20035;-75
2021/12/04 15:53:15;;;;;;;23.40;15.93;;;;;;;;;;4950405;29;20030;-73
2021/12/04 15:55:47;;;;;;;32.10;19.97;;;6.20;99.90;;;;;;4947966;29;20035;-73
2021/12/04 15:58:16;;;;;;;28.37;19.00;;;6.10;99.90;;;;;;4951556;28;20026;-73
2021/12/04 16:00:49;;;;;;;32.43;21.87;;;6.30;99.90;;;;;;4949980;29;20035;-72
2021/12/04 16:03:16;;;;;;;27.10;19.00;;;6.10;99.90;;;;;;4945941;29;20495;-73
2021/12/04 16:05:52;;;;;;;24.23;16.37;;;6.00;99.90;;;;;;4945938;29;20047;-73
2021/12/04 16:08:22;;;;;;;25.90;17.47;;;6.00;99.90;;;;;;4951783;28;20023;-73
2021/12/04 16:10:49;;;;;;;28.17;16.70;;;6.00;99.90;;;;;;4943996;28;20484;-73